Pagina principale
METAR-TAF:

METAR-TAF

Aeroporti :

Aeroporto di Zara-Zemonico

Zara, Croazia

latitudine: 44-06N, longitudine: 015-21E, altezza: 82 m

Osservazione

Il bollettino è stato emesso 37 minuti fa, alle 09:30 UTC
Vento 4 kt da sud, variando fra sud-est e sud/sud-ovest
Temperature 21°C
Umidità 60%
Pressione 1019 hPa
Visibilità 10 km o più
nessuna nube inferiore a 1500 m e nessun cumulonembo

METAR: LDZD 170930Z 17004KT 130V210 CAVOK 21/13 Q1019 NOSIG

Ora: 12:07 (10:07 UTC)

Previsione

Il bollettino è stato emesso 4 ore e 42 minuti fa, alle 05:25 UTC
Previsione valida dal 17 alle 06 UTC al 18 alle 06 UTC
Vento 2 kt da direzioni variabili
Visibilità 10 km o più
nessuna nube inferiore a 1500 m e nessun cumulonembo
Temporaneamente
dal 17 alle 10 UTC al 17 alle 15 UTC
Vento 7 kt da sud

TAF: LDZD 170525Z 1706/1806 VRB02KT CAVOK TX25/1713Z TN13/1805Z TEMPO 1710/1715 18007KT

Osservazioni e previsioni meteorologiche di più di 4000 aeroporti (messaggi METAR e TAF).

Le stazioni disponibili sono rappresentate dai dischi gialli e rossi sulla carta.

Puntare il mouse per vedere il nome della stazione.

Clicca sopra per visualizzare le osservazioni e previsioni meteorologiche.

Per cambiare la mappa : fare clic sui pulsanti verdi con una croce nera per ingrandire, il pulsante verde con un trattino per diminuire, o sulla freccia verde per le mappe adiacenti.


METAR-TAF: